Time;durP1;ratioP1;P1;durP2;ratioP2;P2;SDS_P1;SDS_P2;PMS_P1;PMS_P2;Temp;Humidity;BMP_temperature;BMP_pressure;BME280_temperature;BME280_humidity;BME280_pressure;Samples;Min_cycle;Max_cycle;Signal;HPM_P1;HPM_P2
2024/02/24 00:01:28;;;;;;;1.60;0.75;;;;;;;;;;5053848;28;20111;-55
2024/02/24 00:03:54;;;;;;;1.73;0.80;;;;;;;;;;5053977;28;20435;-55
2024/02/24 00:06:20;;;;;;;3.75;1.13;;;;;;;;;;5053477;28;20116;-56
2024/02/24 00:08:46;;;;;;;4.65;1.25;;;;;;;;;;5054312;28;20028;-55
2024/02/24 00:11:12;;;;;;;3.08;1.40;;;;;;;;;;5053747;28;20021;-58
2024/02/24 00:13:38;;;;;;;2.03;1.05;;;;;;;;;;5053461;28;20052;-54
2024/02/24 00:16:05;;;;;;;3.00;1.25;;;;;;;;;;5054275;28;20106;-55
2024/02/24 00:18:31;;;;;;;2.22;1.20;;;;;;;;;;5053970;28;20032;-56
2024/02/24 00:20:57;;;;;;;1.92;1.00;;;;;;;;;;5054146;28;20370;-54
2024/02/24 00:23:23;;;;;;;6.18;1.25;;;;;;;;;;5054013;28;20033;-54
2024/02/24 00:25:49;;;;;;;4.22;1.40;;;;;;;;;;5053429;28;20570;-56
2024/02/24 00:28:15;;;;;;;2.53;1.30;;;;;;;;;;5054166;28;20104;-56
2024/02/24 00:30:41;;;;;;;3.42;1.58;;;;;;;;;;5054053;28;20021;-56
2024/02/24 00:33:07;;;;;;;3.65;1.42;;;;;;;;;;5054043;28;20485;-54
2024/02/24 00:35:33;;;;;;;6.95;1.58;;;;;;;;;;5055323;28;20513;-56
2024/02/24 00:37:59;;;;;;;4.03;1.25;;;;;;;;;;5058193;28;20017;-54
2024/02/24 00:40:25;;;;;;;3.03;1.02;;;;;;;;;;5057539;28;20026;-55
2024/02/24 00:42:51;;;;;;;3.28;1.25;;;;;;;;;;5057388;28;20032;-55
2024/02/24 00:45:17;;;;;;;3.08;1.70;;;;;;;;;;5057532;28;20056;-56
2024/02/24 00:47:43;;;;;;;4.15;1.40;;;;;;;;;;5057999;28;20036;-56
2024/02/24 00:50:10;;;;;;;3.80;1.58;;;;;;;;;;5057596;28;20025;-54
2024/02/24 00:52:36;;;;;;;5.10;1.27;;;;;;;;;;5058164;28;20029;-55
2024/02/24 00:55:02;;;;;;;6.47;1.65;;;;;;;;;;5057856;28;20371;-56
2024/02/24 00:57:28;;;;;;;7.15;1.77;;;;;;;;;;5057716;28;20041;-55
2024/02/24 00:59:53;;;;;;;5.82;1.40;;;;;;;;;;5058041;28;20035;-56
2024/02/24 01:02:19;;;;;;;1.70;1.10;;;;;;;;;;5057869;28;20036;-53
2024/02/24 01:04:48;;;;;;;2.15;1.25;;;;;;;;;;5057128;28;20029;-54
2024/02/24 01:07:15;;;;;;;2.55;1.20;;;;;;;;;;5057573;28;20071;-56
2024/02/24 01:09:41;;;;;;;2.15;1.00;;;;;;;;;;5057591;28;20066;-56
2024/02/24 01:12:08;;;;;;;2.85;1.27;;;;;;;;;;5056999;28;20051;-54
2024/02/24 01:14:34;;;;;;;2.85;1.38;;;;;;;;;;5057450;28;20362;-56
2024/02/24 01:17:00;;;;;;;2.47;1.40;;;;;;;;;;5056954;28;20074;-54
2024/02/24 01:19:26;;;;;;;3.47;1.17;;;;;;;;;;5057676;28;20025;-54
2024/02/24 01:21:52;;;;;;;2.00;1.08;;;;;;;;;;5056509;28;20024;-55
2024/02/24 01:24:18;;;;;;;4.38;1.77;;;;;;;;;;5057069;28;20467;-54
2024/02/24 01:26:44;;;;;;;1.80;1.00;;;;;;;;;;5056682;28;20053;-56
2024/02/24 01:29:10;;;;;;;3.00;1.35;;;;;;;;;;5057027;28;20053;-56
2024/02/24 01:31:36;;;;;;;3.88;1.40;;;;;;;;;;5056572;28;20439;-54
2024/02/24 01:34:02;;;;;;;3.28;1.35;;;;;;;;;;5056574;28;20032;-56
2024/02/24 01:36:28;;;;;;;1.73;1.10;;;;;;;;;;5056469;28;20054;-56
2024/02/24 01:38:54;;;;;;;2.28;1.17;;;;;;;;;;5057034;28;20040;-54
2024/02/24 01:41:20;;;;;;;2.38;1.17;;;;;;;;;;5056987;28;20135;-54
2024/02/24 01:43:46;;;;;;;1.30;0.60;;;;;;;;;;5056309;28;20044;-54
2024/02/24 01:46:14;;;;;;;4.68;1.52;;;;;;;;;;5055642;28;20029;-56
2024/02/24 01:48:40;;;;;;;2.55;1.30;;;;;;;;;;5056287;28;20033;-55
2024/02/24 01:51:06;;;;;;;1.95;0.93;;;;;;;;;;5056758;28;20021;-55
2024/02/24 01:53:32;;;;;;;2.72;1.20;;;;;;;;;;5056402;28;20424;-55
2024/02/24 01:55:58;;;;;;;4.47;1.45;;;;;;;;;;5056402;28;20048;-55
2024/02/24 01:58:25;;;;;;;1.75;1.15;;;;;;;;;;5056764;28;20064;-56
2024/02/24 02:00:52;;;;;;;1.70;0.75;;;;;;;;;;5056283;28;20075;-55
2024/02/24 02:03:17;;;;;;;2.13;1.13;;;;;;;;;;5056165;28;20029;-53
2024/02/24 02:05:43;;;;;;;3.15;1.77;;;;;;;;;;5055951;28;20024;-55
2024/02/24 02:08:09;;;;;;;2.15;0.77;;;;;;;;;;5056325;28;20104;-54
2024/02/24 02:10:52;;;;;;;2.50;1.25;;;;;;;;;;5055171;28;20024;-55
2024/02/24 02:13:18;;;;;;;2.75;1.40;;;;;;;;;;5056172;28;20029;-52
2024/02/24 02:15:45;;;;;;;4.10;1.40;;;;;;;;;;5055708;28;20025;-53
2024/02/24 02:18:11;;;;;;;2.72;1.38;;;;;;;;;;5056049;28;20106;-55
2024/02/24 02:20:37;;;;;;;6.72;1.83;;;;;;;;;;5055377;28;20494;-55
2024/02/24 02:23:03;;;;;;;1.88;0.93;;;;;;;;;;5056066;28;20037;-56
2024/02/24 02:25:30;;;;;;;5.05;1.13;;;;;;;;;;5055623;28;20025;-53
2024/02/24 02:27:56;;;;;;;4.07;1.33;;;;;;;;;;5056088;28;20025;-56
2024/02/24 02:30:22;;;;;;;1.98;1.02;;;;;;;;;;5055515;28;20039;-54
2024/02/24 02:32:48;;;;;;;1.67;0.98;;;;;;;;;;5056283;28;20109;-56
2024/02/24 02:35:14;;;;;;;2.90;0.68;;;;;;;;;;5055418;28;20083;-56
2024/02/24 02:37:40;;;;;;;2.03;0.80;;;;;;;;;;5055857;28;20056;-52
2024/02/24 02:40:06;;;;;;;2.13;0.93;;;;;;;;;;5055867;28;20048;-56
2024/02/24 02:42:32;;;;;;;3.38;1.05;;;;;;;;;;5055186;28;20040;-56
2024/02/24 02:45:03;;;;;;;2.08;1.13;;;;;;;;;;5055763;28;20492;-56
2024/02/24 02:47:28;;;;;;;;;;;;;;;;;;5056217;28;20025;-56
2024/02/24 02:49:54;;;;;;;3.20;1.33;;;;;;;;;;5055124;28;19928;-54
2024/02/24 02:52:20;;;;;;;1.70;0.93;;;;;;;;;;5055123;28;20061;-52
2024/02/24 02:54:46;;;;;;;3.03;1.15;;;;;;;;;;5055621;28;20025;-55
2024/02/24 02:57:12;;;;;;;1.33;0.70;;;;;;;;;;5054758;28;20041;-54
2024/02/24 02:59:38;;;;;;;2.15;0.80;;;;;;;;;;5054490;28;20383;-53
2024/02/24 03:02:04;;;;;;;2.47;0.70;;;;;;;;;;5055392;28;20096;-54
2024/02/24 03:04:30;;;;;;;1.60;0.82;;;;;;;;;;5054860;28;20459;-55
2024/02/24 03:06:56;;;;;;;1.20;0.73;;;;;;;;;;5055024;28;20478;-53
2024/02/24 03:09:22;;;;;;;1.67;0.82;;;;;;;;;;5054792;28;20025;-55
2024/02/24 03:11:49;;;;;;;1.00;0.65;;;;;;;;;;5054600;28;20029;-56
2024/02/24 03:14:15;;;;;;;2.20;0.80;;;;;;;;;;5054360;28;20390;-56
2024/02/24 03:16:40;;;;;;;1.30;0.65;;;;;;;;;;5054857;28;20031;-54
2024/02/24 03:19:08;;;;;;;1.95;0.50;;;;;;;;;;5054637;28;20064;-54
2024/02/24 03:21:34;;;;;;;1.40;0.65;;;;;;;;;;5055081;28;20086;-56
2024/02/24 03:24:01;;;;;;;1.60;0.73;;;;;;;;;;5054775;28;20363;-54
2024/02/24 03:26:27;;;;;;;1.55;0.52;;;;;;;;;;5054141;28;20455;-54
2024/02/24 03:28:52;;;;;;;5.43;1.27;;;;;;;;;;5054511;28;20031;-55
2024/02/24 03:31:18;;;;;;;2.17;0.60;;;;;;;;;;5054350;28;20017;-56
2024/02/24 03:33:44;;;;;;;1.38;0.65;;;;;;;;;;5054096;28;20033;-55
2024/02/24 03:36:14;;;;;;;0.90;0.30;;;;;;;;;;5054247;28;20021;-55
2024/02/24 03:38:41;;;;;;;2.20;0.68;;;;;;;;;;5054865;28;20025;-55
2024/02/24 03:41:09;;;;;;;1.20;0.55;;;;;;;;;;5054698;28;20017;-56
2024/02/24 03:43:35;;;;;;;2.40;0.85;;;;;;;;;;5054086;28;20115;-56
2024/02/24 03:46:04;;;;;;;1.05;0.35;;;;;;;;;;5053868;28;20390;-55
2024/02/24 03:48:31;;;;;;;2.33;0.55;;;;;;;;;;5054139;28;20021;-54
2024/02/24 03:50:57;;;;;;;3.28;0.68;;;;;;;;;;5054599;28;20150;-53
2024/02/24 03:53:23;;;;;;;0.75;0.40;;;;;;;;;;5054103;28;20044;-53
2024/02/24 03:55:52;;;;;;;2.28;0.88;;;;;;;;;;5053680;28;20115;-55
2024/02/24 03:58:18;;;;;;;1.08;0.45;;;;;;;;;;5054820;28;20032;-55
2024/02/24 04:00:44;;;;;;;4.47;0.93;;;;;;;;;;5054733;28;20071;-56
2024/02/24 04:03:10;;;;;;;2.05;0.77;;;;;;;;;;5053751;28;20047;-58
2024/02/24 04:05:37;;;;;;;1.42;0.50;;;;;;;;;;5054375;28;20021;-52
2024/02/24 04:08:06;;;;;;;2.17;0.70;;;;;;;;;;5054210;28;20025;-55
2024/02/24 04:10:32;;;;;;;2.97;0.93;;;;;;;;;;5053061;28;20373;-54
2024/02/24 04:12:58;;;;;;;2.15;0.85;;;;;;;;;;5054248;28;20025;-54
2024/02/24 04:15:24;;;;;;;3.30;0.70;;;;;;;;;;5054251;28;20340;-57
2024/02/24 04:17:50;;;;;;;1.42;0.60;;;;;;;;;;5053374;28;20021;-54
2024/02/24 04:20:16;;;;;;;1.38;0.60;;;;;;;;;;5053679;28;20029;-57
2024/02/24 04:22:42;;;;;;;2.03;0.85;;;;;;;;;;5054050;28;20029;-53
2024/02/24 04:25:09;;;;;;;1.25;0.47;;;;;;;;;;5054027;28;20024;-53
2024/02/24 04:27:35;;;;;;;1.70;0.70;;;;;;;;;;5053555;28;20029;-56
2024/02/24 04:30:01;;;;;;;2.28;0.80;;;;;;;;;;5053850;28;20021;-58
2024/02/24 04:32:27;;;;;;;1.45;0.80;;;;;;;;;;5053605;28;20071;-56
2024/02/24 04:34:53;;;;;;;4.05;0.90;;;;;;;;;;5054312;28;20033;-56
2024/02/24 04:37:19;;;;;;;1.30;0.80;;;;;;;;;;5053182;28;20108;-56
2024/02/24 04:39:45;;;;;;;3.85;1.42;;;;;;;;;;5054103;28;20048;-51
2024/02/24 04:42:11;;;;;;;1.00;0.50;;;;;;;;;;5053386;28;20025;-56
2024/02/24 04:44:37;;;;;;;2.53;1.02;;;;;;;;;;5053733;28;20079;-53
2024/02/24 04:47:03;;;;;;;3.72;0.70;;;;;;;;;;5053918;28;20455;-54
2024/02/24 04:49:29;;;;;;;2.65;1.00;;;;;;;;;;5053762;28;20029;-55
2024/02/24 04:51:55;;;;;;;2.20;1.02;;;;;;;;;;5053392;28;20029;-58
2024/02/24 04:54:21;;;;;;;1.65;0.75;;;;;;;;;;5053274;28;20025;-55
2024/02/24 04:56:47;;;;;;;1.58;0.60;;;;;;;;;;5054227;28;20056;-57
2024/02/24 04:59:14;;;;;;;1.75;0.82;;;;;;;;;;5052965;28;20079;-57
2024/02/24 05:01:40;;;;;;;1.88;0.80;;;;;;;;;;5054094;28;20454;-57
2024/02/24 05:04:06;;;;;;;0.82;0.45;;;;;;;;;;5053491;28;20060;-57
2024/02/24 05:06:32;;;;;;;4.22;1.52;;;;;;;;;;5053243;28;20036;-58
2024/02/24 05:08:58;;;;;;;2.25;0.98;;;;;;;;;;5053462;28;20075;-58
2024/02/24 05:11:24;;;;;;;4.35;1.00;;;;;;;;;;5053171;28;20029;-57
2024/02/24 05:13:50;;;;;;;3.42;0.77;;;;;;;;;;5053686;28;20033;-58
2024/02/24 05:16:17;;;;;;;1.50;0.73;;;;;;;;;;5053590;28;20021;-58
2024/02/24 05:18:43;;;;;;;3.85;0.40;;;;;;;;;;5053431;28;20029;-58
2024/02/24 05:21:09;;;;;;;1.15;0.55;;;;;;;;;;5054376;28;20017;-54
2024/02/24 05:23:35;;;;;;;2.42;0.90;;;;;;;;;;5056643;28;20060;-54
2024/02/24 05:26:01;;;;;;;1.88;0.63;;;;;;;;;;5056637;28;20140;-54
2024/02/24 05:28:27;;;;;;;1.95;0.63;;;;;;;;;;5057305;28;20021;-56
2024/02/24 05:30:53;;;;;;;3.53;0.90;;;;;;;;;;5057211;28;20363;-58
2024/02/24 05:33:19;;;;;;;1.65;0.90;;;;;;;;;;5057160;28;20025;-58
2024/02/24 05:35:45;;;;;;;1.58;0.52;;;;;;;;;;5056268;28;20025;-58
2024/02/24 05:38:11;;;;;;;1.52;0.85;;;;;;;;;;5057103;28;20053;-57
2024/02/24 05:40:37;;;;;;;3.00;0.80;;;;;;;;;;5056849;28;20074;-54
2024/02/24 05:43:03;;;;;;;1.33;0.65;;;;;;;;;;5056889;28;20047;-55
2024/02/24 05:45:29;;;;;;;1.20;0.40;;;;;;;;;;5056411;28;20028;-55
2024/02/24 05:47:56;;;;;;;1.58;0.90;;;;;;;;;;5057137;28;20033;-57
2024/02/24 05:50:22;;;;;;;1.45;0.50;;;;;;;;;;5056849;28;20078;-54
2024/02/24 05:52:48;;;;;;;1.25;0.82;;;;;;;;;;5056597;28;20111;-55
2024/02/24 05:55:15;;;;;;;2.33;1.20;;;;;;;;;;5056557;28;20052;-58
2024/02/24 05:57:42;;;;;;;4.65;0.95;;;;;;;;;;5056739;28;20053;-56
2024/02/24 06:00:10;;;;;;;1.73;0.82;;;;;;;;;;5056150;28;20073;-58
2024/02/24 06:02:36;;;;;;;1.38;0.80;;;;;;;;;;5056044;28;20037;-57
2024/02/24 06:05:02;;;;;;;0.85;0.32;;;;;;;;;;5055862;28;20035;-57
2024/02/24 06:07:28;;;;;;;3.05;1.20;;;;;;;;;;5055831;28;20022;-57
2024/02/24 06:09:54;;;;;;;2.30;0.90;;;;;;;;;;5056321;28;20091;-57
2024/02/24 06:12:20;;;;;;;7.90;0.93;;;;;;;;;;5056762;28;20107;-56
2024/02/24 06:14:46;;;;;;;2.03;0.85;;;;;;;;;;5055971;28;20025;-57
2024/02/24 06:17:12;;;;;;;1.60;0.85;;;;;;;;;;5056457;28;20121;-54
2024/02/24 06:19:38;;;;;;;2.70;0.93;;;;;;;;;;5056414;28;20065;-58
2024/02/24 06:22:04;;;;;;;8.73;1.30;;;;;;;;;;5055530;28;20025;-56
2024/02/24 06:24:30;;;;;;;2.55;1.35;;;;;;;;;;5056281;28;20024;-58
2024/02/24 06:26:56;;;;;;;3.55;1.20;;;;;;;;;;5055722;28;20027;-57
2024/02/24 06:29:22;;;;;;;2.60;1.23;;;;;;;;;;5056009;28;20036;-57
2024/02/24 06:31:48;;;;;;;1.23;0.80;;;;;;;;;;5055742;28;20108;-56
2024/02/24 06:34:14;;;;;;;2.00;0.90;;;;;;;;;;5054754;28;20120;-58
2024/02/24 06:36:40;;;;;;;2.63;0.90;;;;;;;;;;5055511;28;20032;-58
2024/02/24 06:39:07;;;;;;;2.50;0.90;;;;;;;;;;5056333;28;20363;-58
2024/02/24 06:41:33;;;;;;;2.28;1.15;;;;;;;;;;5056143;28;20029;-57
2024/02/24 06:43:59;;;;;;;5.30;1.33;;;;;;;;;;5055577;28;20041;-57
2024/02/24 06:46:25;;;;;;;2.33;1.20;;;;;;;;;;5055908;28;20112;-56
2024/02/24 06:48:51;;;;;;;2.05;0.85;;;;;;;;;;5055947;28;20025;-57
2024/02/24 06:51:17;;;;;;;1.65;0.77;;;;;;;;;;5054052;28;20021;-55
2024/02/24 06:53:43;;;;;;;2.05;1.13;;;;;;;;;;5055228;28;20119;-58
2024/02/24 06:56:09;;;;;;;3.50;1.08;;;;;;;;;;5055214;28;20054;-57
2024/02/24 06:58:35;;;;;;;1.65;0.90;;;;;;;;;;5055132;28;20032;-58
2024/02/24 07:01:02;;;;;;;1.25;0.57;;;;;;;;;;5055052;28;20017;-54
2024/02/24 07:03:29;;;;;;;3.00;0.85;;;;;;;;;;5055204;28;20033;-57
2024/02/24 07:05:55;;;;;;;1.63;0.70;;;;;;;;;;5054879;28;20514;-57
2024/02/24 07:08:21;;;;;;;2.05;0.80;;;;;;;;;;5055486;28;20090;-58
2024/02/24 07:10:47;;;;;;;1.33;0.60;;;;;;;;;;5055637;28;20060;-58
2024/02/24 07:13:13;;;;;;;1.40;0.60;;;;;;;;;;5055090;28;20028;-57
2024/02/24 07:15:39;;;;;;;1.60;0.80;;;;;;;;;;5054768;28;20374;-58
2024/02/24 07:18:05;;;;;;;1.08;0.57;;;;;;;;;;5055004;28;20104;-58
2024/02/24 07:20:31;;;;;;;3.35;0.75;;;;;;;;;;5054674;28;20114;-56
2024/02/24 07:22:57;;;;;;;1.40;0.60;;;;;;;;;;5054477;28;20033;-56
2024/02/24 07:25:23;;;;;;;1.77;0.77;;;;;;;;;;5054722;28;20059;-54
2024/02/24 07:27:49;;;;;;;1.42;0.52;;;;;;;;;;5055196;28;20354;-57
2024/02/24 07:30:15;;;;;;;0.98;0.52;;;;;;;;;;5054353;28;20493;-55
2024/02/24 07:32:41;;;;;;;0.93;0.40;;;;;;;;;;5054893;28;20029;-58
2024/02/24 07:35:07;;;;;;;1.00;0.40;;;;;;;;;;5054427;28;20029;-56
2024/02/24 07:37:33;;;;;;;1.10;0.50;;;;;;;;;;5054320;28;20386;-55
2024/02/24 07:39:59;;;;;;;1.55;0.70;;;;;;;;;;5054816;28;20113;-52
2024/02/24 07:42:25;;;;;;;0.75;0.40;;;;;;;;;;5054671;28;20457;-55
2024/02/24 07:44:51;;;;;;;1.02;0.40;;;;;;;;;;5054213;28;20036;-57
2024/02/24 07:47:17;;;;;;;0.82;0.32;;;;;;;;;;5054205;28;20025;-57
2024/02/24 07:49:43;;;;;;;1.35;0.75;;;;;;;;;;5054615;28;20123;-58
2024/02/24 07:52:09;;;;;;;1.25;0.80;;;;;;;;;;5054729;28;20359;-56
2024/02/24 07:54:35;;;;;;;0.70;0.30;;;;;;;;;;5054472;28;20036;-57
2024/02/24 07:57:01;;;;;;;0.90;0.40;;;;;;;;;;5052405;28;20047;-54
2024/02/24 07:59:27;;;;;;;0.55;0.30;;;;;;;;;;5053856;28;20025;-55
2024/02/24 08:01:53;;;;;;;1.80;0.22;;;;;;;;;;5054501;28;20029;-53
2024/02/24 08:04:20;;;;;;;0.68;0.20;;;;;;;;;;5053841;28;20107;-54
2024/02/24 08:06:46;;;;;;;0.43;0.20;;;;;;;;;;5054338;28;20033;-56
2024/02/24 08:09:12;;;;;;;0.50;0.20;;;;;;;;;;5054476;28;20090;-56
2024/02/24 08:11:41;;;;;;;0.57;0.30;;;;;;;;;;5053408;28;20025;-55
2024/02/24 08:14:07;;;;;;;0.68;0.20;;;;;;;;;;5054271;28;20052;-56
2024/02/24 08:16:33;;;;;;;0.25;0.10;;;;;;;;;;5053693;28;20036;-57
2024/02/24 08:18:59;;;;;;;0.43;0.20;;;;;;;;;;5054571;28;20029;-54
2024/02/24 08:21:27;;;;;;;1.33;0.35;;;;;;;;;;5054521;28;20467;-54
2024/02/24 08:23:53;;;;;;;0.22;0.15;;;;;;;;;;5054022;28;20041;-54
2024/02/24 08:26:19;;;;;;;0.38;0.10;;;;;;;;;;5053580;28;20091;-56
2024/02/24 08:28:45;;;;;;;0.30;0.20;;;;;;;;;;5053972;28;20027;-55
2024/02/24 08:31:11;;;;;;;0.30;0.10;;;;;;;;;;5053631;28;20398;-55
2024/02/24 08:33:37;;;;;;;0.60;0.22;;;;;;;;;;5053245;28;20025;-55
2024/02/24 08:36:03;;;;;;;2.78;0.45;;;;;;;;;;5054021;28;20032;-55
2024/02/24 08:38:29;;;;;;;0.82;0.40;;;;;;;;;;5054124;28;20029;-56
2024/02/24 08:40:55;;;;;;;0.17;0.10;;;;;;;;;;5053546;28;20048;-53
2024/02/24 08:43:21;;;;;;;0.28;0.15;;;;;;;;;;5053418;28;20049;-55
2024/02/24 08:45:47;;;;;;;0.60;0.32;;;;;;;;;;5054003;28;20118;-56
2024/02/24 08:48:13;;;;;;;0.50;0.20;;;;;;;;;;5053486;28;20067;-54
2024/02/24 08:50:39;;;;;;;0.70;0.30;;;;;;;;;;5053890;28;20017;-55
2024/02/24 08:53:05;;;;;;;0.50;0.20;;;;;;;;;;5053565;28;20065;-53
2024/02/24 08:55:31;;;;;;;1.00;0.30;;;;;;;;;;5053454;28;20059;-56
2024/02/24 08:57:57;;;;;;;1.52;0.30;;;;;;;;;;5058415;28;20049;-55
2024/02/24 09:00:23;;;;;;;0.80;0.22;;;;;;;;;;5056908;28;20039;-57
2024/02/24 09:02:49;;;;;;;1.27;0.85;;;;;;;;;;5057490;28;20044;-54
2024/02/24 09:05:16;;;;;;;1.05;0.30;;;;;;;;;;5057194;28;20027;-55
2024/02/24 09:07:41;;;;;;;0.40;0.13;;;;;;;;;;5057116;28;20029;-57
2024/02/24 09:10:08;;;;;;;0.82;0.30;;;;;;;;;;5057183;28;20470;-55
2024/02/24 09:12:34;;;;;;;1.45;0.30;;;;;;;;;;5057200;28;20036;-55
2024/02/24 09:15:00;;;;;;;1.08;0.28;;;;;;;;;;5057567;28;20355;-56
2024/02/24 09:17:26;;;;;;;0.73;0.28;;;;;;;;;;5056875;28;20520;-56
2024/02/24 09:19:51;;;;;;;1.10;0.60;;;;;;;;;;5057112;28;20025;-54
2024/02/24 09:22:17;;;;;;;0.35;0.20;;;;;;;;;;5057579;28;20443;-55
2024/02/24 09:24:43;;;;;;;0.32;0.20;;;;;;;;;;5056759;28;20067;-56
2024/02/24 09:27:09;;;;;;;0.57;0.28;;;;;;;;;;5057293;28;20087;-53
2024/02/24 09:29:35;;;;;;;0.28;0.10;;;;;;;;;;5057288;28;20024;-56
2024/02/24 09:32:02;;;;;;;1.73;0.20;;;;;;;;;;5057001;28;20558;-56
2024/02/24 09:34:27;;;;;;;0.20;0.10;;;;;;;;;;5057105;28;20451;-57
2024/02/24 09:36:55;;;;;;;0.57;0.30;;;;;;;;;;5057071;28;20036;-56
2024/02/24 09:39:21;;;;;;;1.30;0.40;;;;;;;;;;5057354;28;20044;-53
2024/02/24 09:41:47;;;;;;;0.88;0.30;;;;;;;;;;5056589;28;20028;-56
2024/02/24 09:44:13;;;;;;;0.28;0.20;;;;;;;;;;5056238;28;20037;-57
2024/02/24 09:46:40;;;;;;;0.32;0.20;;;;;;;;;;5056306;28;20028;-55
2024/02/24 09:49:06;;;;;;;0.60;0.20;;;;;;;;;;5056335;28;20025;-54
2024/02/24 09:51:34;;;;;;;0.52;0.30;;;;;;;;;;5055751;28;20036;-54
2024/02/24 09:54:01;;;;;;;1.50;0.57;;;;;;;;;;5056857;28;20052;-57
2024/02/24 09:56:28;;;;;;;0.47;0.17;;;;;;;;;;5056081;28;20049;-54
2024/02/24 09:58:54;;;;;;;0.47;0.40;;;;;;;;;;5055731;28;20032;-57
2024/02/24 10:01:20;;;;;;;2.65;0.30;;;;;;;;;;5055832;28;20116;-58
2024/02/24 10:03:48;;;;;;;2.05;0.60;;;;;;;;;;5055900;28;20508;-56
2024/02/24 10:06:14;;;;;;;0.40;0.10;;;;;;;;;;5055866;28;20040;-55
2024/02/24 10:08:40;;;;;;;0.52;0.20;;;;;;;;;;5055250;28;20447;-56
2024/02/24 10:11:06;;;;;;;0.30;0.10;;;;;;;;;;5055570;28;20054;-54
2024/02/24 10:13:32;;;;;;;0.75;0.30;;;;;;;;;;5055854;28;20040;-55
2024/02/24 10:16:03;;;;;;;0.68;0.30;;;;;;;;;;5056107;28;20091;-54
2024/02/24 10:18:31;;;;;;;0.20;0.10;;;;;;;;;;5055873;28;20025;-56
2024/02/24 10:20:57;;;;;;;0.43;0.28;;;;;;;;;;5056185;28;20150;-56
2024/02/24 10:23:23;;;;;;;0.47;0.20;;;;;;;;;;5056266;28;20480;-54
2024/02/24 10:25:49;;;;;;;0.63;0.20;;;;;;;;;;5055387;28;20108;-55
2024/02/24 10:28:15;;;;;;;2.75;0.60;;;;;;;;;;5056046;28;20056;-55
2024/02/24 10:30:41;;;;;;;0.57;0.22;;;;;;;;;;5055478;28;20539;-55
2024/02/24 10:33:09;;;;;;;3.42;1.58;;;;;;;;;;5055428;28;20021;-53
2024/02/24 10:35:35;;;;;;;1.30;0.52;;;;;;;;;;5055417;28;20017;-58
2024/02/24 10:38:01;;;;;;;0.80;0.22;;;;;;;;;;5055383;28;20032;-58
2024/02/24 10:40:27;;;;;;;0.30;0.20;;;;;;;;;;5055376;28;20027;-58
2024/02/24 10:42:54;;;;;;;0.55;0.20;;;;;;;;;;5055244;28;20124;-55
2024/02/24 10:45:20;;;;;;;4.40;0.43;;;;;;;;;;5055430;28;20032;-57
2024/02/24 10:47:47;;;;;;;0.80;0.20;;;;;;;;;;5054900;28;20459;-57
2024/02/24 10:50:13;;;;;;;1.98;0.25;;;;;;;;;;5055696;28;20025;-57
2024/02/24 10:52:40;;;;;;;0.75;0.30;;;;;;;;;;5055110;28;20025;-57
2024/02/24 10:55:10;;;;;;;1.10;0.50;;;;;;;;;;5055501;28;20116;-53
2024/02/24 10:57:37;;;;;;;0.85;0.30;;;;;;;;;;5055301;28;20067;-56
2024/02/24 11:00:27;;;;;;;3.53;0.40;;;;;;;;;;5054826;28;20489;-56
2024/02/24 11:02:52;;;;;;;0.35;0.20;;;;;;;;;;5051753;28;20087;-56
2024/02/24 11:05:18;;;;;;;0.73;0.30;;;;;;;;;;5055014;28;20470;-58
2024/02/24 11:07:45;;;;;;;0.35;0.20;;;;;;;;;;5054812;28;20100;-56
2024/02/24 11:10:18;;;;;;;1.10;0.57;;;;;;;;;;5054494;28;20536;-57
2024/02/24 11:12:44;;;;;;;0.60;0.28;;;;;;;;;;5055472;28;20117;-54
2024/02/24 11:15:17;;;;;;;0.80;0.30;;;;;;;;;;5055430;28;20036;-57
2024/02/24 11:17:55;;;;;;;0.40;0.20;;;;;;;;;;5055150;28;20029;-58
2024/02/24 11:20:40;;;;;;;1.60;0.20;;;;;;;;;;5053812;28;20112;-56
2024/02/24 11:23:19;;;;;;;0.30;0.10;;;;;;;;;;5054001;28;20037;-54
2024/02/24 11:25:45;;;;;;;2.00;0.28;;;;;;;;;;5053809;28;20029;-56
2024/02/24 11:28:19;;;;;;;1.75;0.10;;;;;;;;;;5054357;28;20100;-56
2024/02/24 11:30:45;;;;;;;0.10;0.10;;;;;;;;;;5054167;28;20025;-55
2024/02/24 11:33:35;;;;;;;1.98;0.30;;;;;;;;;;5054465;28;20036;-56
2024/02/24 11:36:02;;;;;;;0.43;0.13;;;;;;;;;;5054658;28;20025;-57
2024/02/24 11:38:32;;;;;;;0.60;0.20;;;;;;;;;;5053962;28;20029;-57
2024/02/24 11:40:58;;;;;;;0.43;0.15;;;;;;;;;;5053473;28;20032;-56
2024/02/24 11:43:24;;;;;;;0.30;0.17;;;;;;;;;;5053202;28;20448;-55
2024/02/24 11:45:51;;;;;;;0.63;0.30;;;;;;;;;;5053809;28;20106;-53
2024/02/24 11:48:17;;;;;;;0.57;0.20;;;;;;;;;;5054301;28;20027;-53
2024/02/24 11:50:43;;;;;;;2.83;0.30;;;;;;;;;;5053871;28;20056;-54
2024/02/24 11:53:19;;;;;;;0.25;0.10;;;;;;;;;;5053919;28;20324;-56
2024/02/24 11:55:45;;;;;;;0.70;0.30;;;;;;;;;;5053374;28;20045;-58
2024/02/24 11:58:12;;;;;;;0.15;0.10;;;;;;;;;;5054579;28;20027;-58
2024/02/24 12:00:38;;;;;;;0.10;0.00;;;;;;;;;;5053495;28;20414;-57
2024/02/24 12:03:05;;;;;;;0.38;0.08;;;;;;;;;;5053897;28;20044;-56
2024/02/24 12:05:31;;;;;;;0.38;0.10;;;;;;;;;;5053945;28;20052;-54
2024/02/24 12:08:04;;;;;;;0.08;0.00;;;;;;;;;;5054545;28;20032;-54
2024/02/24 12:10:36;;;;;;;0.35;0.10;;;;;;;;;;5053671;28;20455;-55
2024/02/24 12:13:01;;;;;;;0.30;0.20;;;;;;;;;;5053800;28;20139;-57
2024/02/24 12:15:27;;;;;;;1.05;0.30;;;;;;;;;;5053950;28;20462;-55
2024/02/24 12:17:53;;;;;;;0.25;0.10;;;;;;;;;;5053899;28;20025;-57
2024/02/24 12:20:24;;;;;;;0.43;0.22;;;;;;;;;;5052975;28;20021;-55
2024/02/24 12:22:50;;;;;;;0.35;0.20;;;;;;;;;;5053579;28;20039;-58
2024/02/24 12:25:16;;;;;;;1.25;0.20;;;;;;;;;;5052878;28;20028;-57
2024/02/24 12:27:42;;;;;;;0.82;0.30;;;;;;;;;;5052958;28;20029;-56
2024/02/24 12:30:10;;;;;;;0.55;0.25;;;;;;;;;;5053377;28;20440;-55
2024/02/24 12:32:35;;;;;;;0.98;0.20;;;;;;;;;;5052754;28;20112;-55
2024/02/24 12:35:05;;;;;;;0.70;0.25;;;;;;;;;;5053014;28;20040;-55
2024/02/24 12:37:35;;;;;;;0.50;0.30;;;;;;;;;;5052995;28;20044;-56
2024/02/24 12:40:04;;;;;;;0.80;0.30;;;;;;;;;;5053113;28;20260;-51
2024/02/24 12:42:30;;;;;;;0.90;0.35;;;;;;;;;;5053262;28;20116;-56
2024/02/24 12:45:00;;;;;;;0.80;0.22;;;;;;;;;;5053890;28;20071;-56
2024/02/24 12:47:26;;;;;;;0.75;0.35;;;;;;;;;;5053674;28;20029;-57
2024/02/24 12:49:52;;;;;;;0.45;0.20;;;;;;;;;;5053140;28;20039;-55
2024/02/24 12:52:18;;;;;;;0.52;0.10;;;;;;;;;;5053237;28;20025;-57
2024/02/24 12:54:44;;;;;;;1.52;0.45;;;;;;;;;;5053711;28;20036;-55
2024/02/24 12:57:10;;;;;;;0.60;0.30;;;;;;;;;;5053901;28;20053;-54
2024/02/24 12:59:36;;;;;;;0.20;0.10;;;;;;;;;;5053234;28;20043;-57
2024/02/24 13:02:02;;;;;;;0.43;0.17;;;;;;;;;;5053145;28;20021;-53
2024/02/24 13:04:28;;;;;;;3.08;0.30;;;;;;;;;;5053681;28;20037;-57
2024/02/24 13:06:54;;;;;;;0.32;0.10;;;;;;;;;;5053048;28;20026;-56
2024/02/24 13:09:20;;;;;;;0.30;0.10;;;;;;;;;;5053617;28;20078;-55
2024/02/24 13:11:49;;;;;;;0.00;0.00;;;;;;;;;;5053056;28;20061;-57
2024/02/24 13:14:15;;;;;;;1.30;0.20;;;;;;;;;;5053569;28;20088;-57
2024/02/24 13:16:41;;;;;;;2.33;0.55;;;;;;;;;;5053538;28;20498;-54
2024/02/24 13:19:07;;;;;;;0.68;0.10;;;;;;;;;;5053350;28;20025;-57
2024/02/24 13:21:33;;;;;;;0.22;0.10;;;;;;;;;;5053427;28;20177;-55
2024/02/24 13:23:59;;;;;;;0.35;0.13;;;;;;;;;;5053199;28;20458;-56
2024/02/24 13:27:05;;;;;;;;;;;;;;;;;;;;;
2024/02/24 13:29:31;;;;;;;0.10;0.10;;;;;;;;;;5046149;28;20041;-54
2024/02/24 13:31:57;;;;;;;0.13;0.08;;;;;;;;;;5052930;28;20113;-54
2024/02/24 13:34:23;;;;;;;0.57;0.30;;;;;;;;;;5052923;28;20566;-54
2024/02/24 13:36:49;;;;;;;0.50;0.20;;;;;;;;;;5052595;28;20108;-56
2024/02/24 13:39:16;;;;;;;0.35;0.20;;;;;;;;;;5053153;28;20032;-56
2024/02/24 13:41:42;;;;;;;0.90;0.17;;;;;;;;;;5053367;28;20083;-55
2024/02/24 13:44:12;;;;;;;0.65;0.20;;;;;;;;;;5056679;28;20037;-56
2024/02/24 13:46:38;;;;;;;0.22;0.10;;;;;;;;;;5057096;28;20029;-55
2024/02/24 13:49:09;;;;;;;0.88;0.28;;;;;;;;;;5056594;28;20025;-55
2024/02/24 13:51:35;;;;;;;0.32;0.10;;;;;;;;;;5056595;28;20520;-54
2024/02/24 13:54:01;;;;;;;0.52;0.20;;;;;;;;;;5056157;28;20021;-56
2024/02/24 13:56:27;;;;;;;2.72;0.30;;;;;;;;;;5056713;28;20053;-54
2024/02/24 13:58:53;;;;;;;0.10;0.10;;;;;;;;;;5055999;28;20029;-56
2024/02/24 14:01:19;;;;;;;0.45;0.17;;;;;;;;;;5055854;28;20028;-55
2024/02/24 14:03:46;;;;;;;0.22;0.10;;;;;;;;;;5055775;28;20458;-53
2024/02/24 14:06:12;;;;;;;1.08;0.45;;;;;;;;;;5055838;28;20033;-56
2024/02/24 14:08:38;;;;;;;0.25;0.20;;;;;;;;;;5055978;28;20029;-55
2024/02/24 14:11:06;;;;;;;0.30;0.10;;;;;;;;;;5056467;28;20058;-56
2024/02/24 14:13:33;;;;;;;0.25;0.10;;;;;;;;;;5056061;28;20033;-56
2024/02/24 14:15:59;;;;;;;0.75;0.30;;;;;;;;;;5055672;28;20434;-56
2024/02/24 14:18:25;;;;;;;1.45;0.20;;;;;;;;;;5055576;28;20029;-55
2024/02/24 14:20:51;;;;;;;0.08;0.00;;;;;;;;;;5055382;28;20036;-55
2024/02/24 14:23:17;;;;;;;0.40;0.20;;;;;;;;;;5055763;28;20036;-54
2024/02/24 14:25:45;;;;;;;2.40;0.43;;;;;;;;;;5055545;28;20021;-56
2024/02/24 14:28:11;;;;;;;0.88;0.13;;;;;;;;;;5055783;28;20156;-53
2024/02/24 14:30:38;;;;;;;1.17;0.40;;;;;;;;;;5055399;28;20067;-54
2024/02/24 14:33:04;;;;;;;0.55;0.25;;;;;;;;;;5055349;28;20036;-54
2024/02/24 14:35:30;;;;;;;0.35;0.10;;;;;;;;;;5055814;28;20025;-54
2024/02/24 14:37:56;;;;;;;0.32;0.10;;;;;;;;;;5056524;28;20116;-55
2024/02/24 14:40:23;;;;;;;0.57;0.30;;;;;;;;;;5055367;28;20438;-55